createdAt,value
2019-05-25T00:00:47.742Z,59.39
2019-05-25T00:01:47.777Z,59.46
2019-05-25T00:02:47.742Z,59.56
2019-05-25T00:03:47.676Z,58.54
2019-05-25T00:04:47.664Z,59.79
2019-05-25T00:05:47.655Z,59.99
2019-05-25T00:06:47.641Z,60.10
2019-05-25T00:07:47.678Z,59.08
2019-05-25T00:08:47.666Z,59.28
2019-05-25T00:09:48.550Z,60.60
2019-05-25T00:10:47.645Z,59.28
2019-05-25T00:11:47.590Z,58.47
2019-05-25T00:12:47.623Z,58.47
2019-05-25T00:13:47.571Z,59.39
2019-05-25T00:14:47.590Z,59.08
2019-05-25T00:15:47.541Z,59.59
2019-05-25T00:16:47.538Z,59.89
2019-05-25T00:17:47.524Z,59.48
2019-05-25T00:18:47.547Z,59.28
2019-05-25T00:19:47.506Z,59.21
2019-05-25T00:20:47.484Z,60.10
2019-05-25T00:21:47.517Z,59.72
2019-05-25T00:22:47.464Z,58.60
2019-05-25T00:23:47.457Z,59.11
2019-05-25T00:24:47.440Z,60.94
2019-05-25T00:25:47.473Z,61.14
2019-05-25T00:26:47.417Z,58.80
2019-05-25T00:27:47.408Z,58.70
2019-05-25T00:28:47.438Z,60.76
2019-05-25T00:29:47.385Z,60.86
2019-05-25T00:30:47.376Z,58.33
2019-05-25T00:31:47.375Z,60.15
2019-05-25T00:32:47.353Z,60.25
2019-05-25T00:33:47.381Z,60.86
2019-05-25T00:34:47.434Z,60.15
2019-05-25T00:35:47.323Z,59.14
2019-05-25T00:36:47.351Z,61.20
2019-05-25T00:37:47.295Z,59.37
2019-05-25T00:38:47.287Z,59.57
2019-05-25T00:39:47.273Z,61.10
2019-05-25T00:40:47.261Z,59.06
2019-05-25T00:41:47.249Z,59.67
2019-05-25T00:42:47.284Z,61.10
2019-05-25T00:43:47.273Z,61.10
2019-05-25T00:44:47.217Z,60.08
2019-05-25T00:45:47.206Z,60.08
2019-05-25T00:46:47.196Z,60.00
2019-05-25T00:47:47.183Z,60.38
2019-05-25T00:48:47.172Z,59.60
2019-05-25T00:49:47.200Z,59.67
2019-05-25T00:50:47.147Z,59.60
2019-05-25T00:51:47.141Z,59.57
2019-05-25T00:52:47.130Z,58.56
2019-05-25T00:53:47.116Z,59.60
2019-05-25T00:54:47.152Z,59.77
2019-05-25T00:55:47.097Z,58.58
2019-05-25T00:56:47.124Z,60.00
2019-05-25T00:57:47.071Z,60.31
2019-05-25T00:58:47.103Z,59.88
2019-05-25T00:59:47.047Z,61.02
2019-05-25T01:00:47.061Z,60.52
2019-05-25T01:01:47.032Z,59.91
2019-05-25T01:02:47.018Z,59.39
2019-05-25T01:03:47.004Z,58.78
2019-05-25T01:04:47.034Z,58.38
2019-05-25T01:05:46.984Z,59.19
2019-05-25T01:06:47.010Z,59.70
2019-05-25T01:07:46.958Z,59.63
2019-05-25T01:08:46.947Z,59.93
2019-05-25T01:09:46.939Z,59.93
2019-05-25T01:10:46.980Z,60.75
2019-05-25T01:11:46.914Z,60.14
2019-05-25T01:12:46.903Z,60.64
2019-05-25T01:13:46.893Z,60.34
2019-05-25T01:14:46.885Z,60.54
2019-05-25T01:15:46.874Z,60.85
2019-05-25T01:16:46.915Z,60.34
2019-05-25T01:17:46.847Z,61.66
2019-05-25T01:18:46.842Z,61.25
2019-05-25T01:19:46.823Z,61.29
2019-05-25T01:20:46.817Z,61.29
2019-05-25T01:21:46.843Z,60.68
2019-05-25T01:22:46.800Z,61.38
2019-05-25T01:23:46.777Z,62.20
2019-05-25T01:24:46.768Z,61.49
2019-05-25T01:25:46.761Z,61.59
2019-05-25T01:26:46.792Z,61.69
2019-05-25T01:27:46.734Z,61.00
2019-05-25T01:28:46.766Z,61.49
2019-05-25T01:29:46.710Z,62.02
2019-05-25T01:30:46.699Z,61.49
2019-05-25T01:31:46.687Z,61.31
2019-05-25T01:32:46.678Z,61.72
2019-05-25T01:33:46.666Z,61.21
2019-05-25T01:34:46.702Z,61.72
2019-05-25T01:35:46.644Z,61.61
2019-05-25T01:36:46.633Z,61.52
2019-05-25T01:37:48.673Z,61.52
2019-05-25T01:38:46.648Z,61.82
2019-05-25T01:39:46.599Z,61.72
2019-05-25T01:40:46.588Z,61.65
2019-05-25T01:41:46.575Z,61.72
2019-05-25T01:42:46.562Z,61.82
2019-05-25T01:43:46.556Z,61.82
2019-05-25T01:44:46.592Z,61.41
2019-05-25T01:45:46.530Z,61.72
2019-05-25T01:46:46.527Z,61.72
2019-05-25T01:47:46.507Z,61.93
2019-05-25T01:48:46.495Z,62.33
2019-05-25T01:49:46.488Z,61.54
2019-05-25T01:50:46.512Z,61.41
2019-05-25T01:51:46.544Z,62.63
2019-05-25T01:52:46.453Z,62.02
2019-05-25T01:53:46.439Z,62.74
2019-05-25T01:54:58.852Z,62.02
2019-05-25T01:55:47.414Z,62.16
2019-05-25T01:56:46.449Z,62.56
2019-05-25T01:57:46.448Z,62.36
2019-05-25T01:58:46.382Z,62.46
2019-05-25T01:59:46.371Z,63.38
2019-05-25T02:00:46.398Z,62.80
2019-05-25T02:01:46.361Z,62.80
2019-05-25T02:02:46.336Z,63.10
2019-05-25T02:03:46.325Z,63.51
2019-05-25T02:04:46.313Z,63.41
2019-05-25T02:05:46.343Z,63.41
2019-05-25T02:06:46.294Z,63.71
2019-05-25T02:07:46.279Z,63.51
2019-05-25T02:08:46.269Z,63.00
2019-05-25T02:09:46.261Z,62.70
2019-05-25T02:10:46.284Z,63.54
2019-05-25T02:11:46.276Z,63.41
2019-05-25T02:12:46.224Z,63.71
2019-05-25T02:13:46.210Z,63.61
2019-05-25T02:14:46.258Z,64.05
2019-05-25T02:15:46.195Z,63.95
2019-05-25T02:16:46.177Z,63.95
2019-05-25T02:17:46.167Z,64.87
2019-05-25T02:18:46.156Z,64.76
2019-05-25T02:19:46.145Z,65.07
2019-05-25T02:20:46.192Z,65.37
2019-05-25T02:21:46.119Z,67.04
2019-05-25T02:22:46.116Z,67.01
2019-05-25T02:23:46.101Z,65.48
2019-05-25T02:24:46.090Z,66.19
2019-05-25T02:25:46.082Z,66.09
2019-05-25T02:26:46.132Z,66.19
2019-05-25T02:27:46.094Z,66.09
2019-05-25T02:28:46.040Z,65.68
2019-05-25T02:29:46.036Z,64.97
2019-05-25T02:30:46.021Z,64.66
2019-05-25T02:31:46.005Z,65.07
2019-05-25T02:32:45.995Z,65.17
2019-05-25T02:33:46.023Z,65.10
2019-05-25T02:34:45.971Z,64.59
2019-05-25T02:35:45.963Z,65.28
2019-05-25T02:36:45.954Z,65.51
2019-05-25T02:37:45.938Z,66.33
2019-05-25T02:38:45.968Z,65.71
2019-05-25T02:39:45.916Z,66.63
2019-05-25T02:40:45.904Z,66.42
2019-05-25T02:41:45.933Z,66.22
2019-05-25T02:42:45.880Z,66.33
2019-05-25T02:43:45.869Z,65.71
2019-05-25T02:44:45.858Z,66.42
2019-05-25T02:45:45.849Z,66.42
2019-05-25T02:46:45.842Z,65.74
2019-05-25T02:47:45.862Z,67.04
2019-05-25T02:48:45.811Z,66.36
2019-05-25T02:49:45.847Z,67.18
2019-05-25T02:50:45.791Z,67.27
2019-05-25T02:51:45.777Z,66.74
2019-05-25T02:52:45.769Z,67.27
2019-05-25T02:53:45.798Z,67.18
2019-05-25T02:54:45.744Z,67.27
2019-05-25T02:55:45.737Z,67.89
2019-05-25T02:56:45.722Z,67.48
2019-05-25T02:57:45.749Z,67.18
2019-05-25T02:58:45.699Z,67.21
2019-05-25T02:59:45.730Z,67.79
2019-05-25T03:00:45.677Z,67.68
2019-05-25T03:01:45.706Z,67.89
2019-05-25T03:02:45.761Z,67.89
2019-05-25T03:03:45.642Z,67.92
2019-05-25T03:04:45.634Z,68.53
2019-05-25T03:05:45.630Z,67.82
2019-05-25T03:06:45.612Z,68.02
2019-05-25T03:07:45.636Z,67.82
2019-05-25T03:08:45.584Z,67.82
2019-05-25T03:09:45.575Z,67.71
2019-05-25T03:10:45.562Z,67.92
2019-05-25T03:11:45.594Z,66.77
2019-05-25T03:12:45.545Z,66.56
2019-05-25T03:13:45.528Z,66.77
2019-05-25T03:14:45.517Z,67.10
2019-05-25T03:15:45.544Z,66.56
2019-05-25T03:16:45.494Z,66.77
2019-05-25T03:17:45.529Z,66.56
2019-05-25T03:18:45.471Z,66.97
2019-05-25T03:19:45.461Z,67.18
2019-05-25T03:20:45.447Z,66.97
2019-05-25T03:21:45.440Z,67.92
2019-05-25T03:22:45.429Z,67.00
2019-05-25T03:23:45.461Z,67.41
2019-05-25T03:24:45.405Z,66.90
2019-05-25T03:25:49.684Z,67.07
2019-05-25T03:26:45.381Z,67.18
2019-05-25T03:27:45.378Z,67.18
2019-05-25T03:28:45.357Z,67.21
2019-05-25T03:29:45.348Z,66.56
2019-05-25T03:30:45.379Z,67.18
2019-05-25T03:31:45.326Z,67.71
2019-05-25T03:32:45.313Z,67.79
2019-05-25T03:33:45.301Z,67.41
2019-05-25T03:34:45.328Z,67.99
2019-05-25T03:35:45.279Z,67.38
2019-05-25T03:36:45.311Z,67.61
2019-05-25T03:37:45.255Z,67.61
2019-05-25T03:38:45.245Z,67.10
2019-05-25T03:39:45.234Z,68.23
2019-05-25T03:40:45.261Z,67.48
2019-05-25T03:41:45.263Z,67.10
2019-05-25T03:42:45.200Z,66.66
2019-05-25T03:43:45.189Z,67.07
2019-05-25T03:44:45.176Z,67.92
2019-05-25T03:45:45.170Z,67.68
2019-05-25T03:46:45.193Z,66.80
2019-05-25T03:47:45.142Z,67.71
2019-05-25T03:48:45.131Z,68.33
2019-05-25T03:49:45.119Z,69.04
2019-05-25T03:50:45.107Z,68.33
2019-05-25T03:51:45.097Z,68.33
2019-05-25T03:52:45.127Z,69.15
2019-05-25T03:53:45.122Z,68.43
2019-05-25T03:54:45.062Z,68.46
2019-05-25T03:55:45.055Z,69.18
2019-05-25T03:56:45.085Z,68.87
2019-05-25T03:57:45.098Z,69.07
2019-05-25T03:58:45.021Z,68.87
2019-05-25T03:59:45.005Z,68.87
2019-05-25T04:00:45.036Z,68.87
2019-05-25T04:01:44.984Z,69.59
2019-05-25T04:02:44.975Z,70.10
2019-05-25T04:03:45.004Z,70.10
2019-05-25T04:04:44.949Z,69.18
2019-05-25T04:05:44.957Z,68.87
2019-05-25T04:06:44.972Z,69.28
2019-05-25T04:07:44.927Z,70.20
2019-05-25T04:08:44.946Z,70.10
2019-05-25T04:09:44.933Z,70.10
2019-05-25T04:10:44.904Z,70.00
2019-05-25T04:11:44.867Z,69.89
2019-05-25T04:12:44.858Z,69.69
2019-05-25T04:13:44.886Z,68.77
2019-05-25T04:14:44.834Z,69.38
2019-05-25T04:15:44.832Z,68.97
2019-05-25T04:16:44.858Z,69.18
2019-05-25T04:17:44.800Z,69.38
2019-05-25T04:18:44.792Z,70.10
2019-05-25T04:19:44.824Z,70.20
2019-05-25T04:20:44.765Z,69.07
2019-05-25T04:21:44.757Z,69.69
2019-05-25T04:22:44.782Z,69.79
2019-05-25T04:23:44.731Z,69.69
2019-05-25T04:24:44.727Z,68.77
2019-05-25T04:25:44.756Z,69.69
2019-05-25T04:26:44.738Z,70.00
2019-05-25T04:27:44.686Z,68.97
2019-05-25T04:28:44.677Z,68.77
2019-05-25T04:29:44.665Z,69.18
2019-05-25T04:30:44.700Z,69.89
2019-05-25T04:31:44.641Z,70.00
2019-05-25T04:32:44.672Z,69.07
2019-05-25T04:33:44.616Z,68.87
2019-05-25T04:34:44.605Z,69.07
2019-05-25T04:35:44.595Z,69.69
2019-05-25T04:36:44.583Z,69.38
2019-05-25T04:37:44.572Z,70.20
2019-05-25T04:38:44.607Z,68.87
2019-05-25T04:39:44.596Z,68.97
2019-05-25T04:40:44.537Z,69.18
2019-05-25T04:41:44.526Z,69.38
2019-05-25T04:42:44.519Z,69.07
2019-05-25T04:43:44.557Z,68.77
2019-05-25T04:44:44.492Z,68.84
2019-05-25T04:45:44.775Z,68.74
2019-05-25T04:46:44.472Z,68.77
2019-05-25T04:47:44.458Z,68.84
2019-05-25T04:48:44.486Z,69.04
2019-05-25T04:49:44.435Z,69.04
2019-05-25T04:50:44.426Z,69.04
2019-05-25T04:51:44.457Z,69.04
2019-05-25T04:52:44.408Z,68.84
2019-05-25T04:53:44.389Z,69.24
2019-05-25T04:54:44.378Z,68.30
2019-05-25T04:55:44.368Z,68.40
2019-05-25T04:56:44.397Z,68.09
2019-05-25T04:57:44.382Z,68.30
2019-05-25T04:58:44.360Z,68.60
2019-05-25T04:59:44.321Z,68.30
2019-05-25T05:00:44.353Z,68.40
2019-05-25T05:01:44.309Z,67.89
2019-05-25T05:02:44.291Z,68.06
2019-05-25T05:03:44.280Z,67.65
2019-05-25T05:04:44.271Z,67.55
2019-05-25T05:05:44.300Z,67.24
2019-05-25T05:06:44.287Z,67.72
2019-05-25T05:07:44.239Z,67.82
2019-05-25T05:08:44.273Z,67.04
2019-05-25T05:09:44.209Z,67.32
2019-05-25T05:10:44.206Z,67.72
2019-05-25T05:11:44.188Z,67.32
2019-05-25T05:12:44.179Z,66.91
2019-05-25T05:13:44.213Z,66.80
2019-05-25T05:14:44.169Z,66.80
2019-05-25T05:15:44.154Z,66.77
2019-05-25T05:16:44.179Z,67.69
2019-05-25T05:17:44.169Z,66.91
2019-05-25T05:18:44.110Z,67.29
2019-05-25T05:19:44.143Z,67.18
2019-05-25T05:20:44.131Z,67.08
2019-05-25T05:21:44.121Z,66.97
2019-05-25T05:22:44.077Z,67.05
2019-05-25T05:23:44.052Z,67.08
2019-05-25T05:24:44.050Z,67.05
2019-05-25T05:25:44.071Z,67.46
2019-05-25T05:26:55.310Z,67.25
2019-05-25T05:27:45.053Z,66.74
2019-05-25T05:28:43.994Z,67.22
2019-05-25T05:29:44.030Z,66.71
2019-05-25T05:30:43.975Z,67.25
2019-05-25T05:31:43.964Z,67.76
2019-05-25T05:32:43.958Z,67.73
2019-05-25T05:33:43.955Z,68.24
2019-05-25T05:34:43.969Z,68.34
2019-05-25T05:35:43.972Z,68.24
2019-05-25T05:36:43.903Z,68.13
2019-05-25T05:37:43.906Z,68.24
2019-05-25T05:38:43.886Z,68.24
2019-05-25T05:39:43.908Z,68.95
2019-05-25T05:40:43.862Z,68.85
2019-05-25T05:41:43.897Z,68.95
2019-05-25T05:42:43.891Z,69.15
2019-05-25T05:43:43.825Z,68.95
2019-05-25T05:44:43.821Z,68.65
2019-05-25T05:45:43.804Z,68.92
2019-05-25T05:46:43.804Z,68.75
2019-05-25T05:47:43.783Z,69.23
2019-05-25T05:48:43.811Z,68.65
2019-05-25T05:49:43.779Z,68.62
2019-05-25T05:50:43.809Z,68.62
2019-05-25T05:51:43.737Z,68.51
2019-05-25T05:52:43.721Z,69.12
2019-05-25T05:53:43.726Z,68.71
2019-05-25T05:54:43.754Z,69.53
2019-05-25T05:55:43.685Z,69.73
2019-05-25T05:56:43.799Z,69.70
2019-05-25T05:57:43.670Z,70.01
2019-05-25T05:58:43.661Z,69.80
2019-05-25T05:59:43.653Z,69.63
2019-05-25T06:00:43.678Z,69.73
2019-05-25T06:01:43.627Z,69.84
2019-05-25T06:02:43.676Z,70.14
2019-05-25T06:03:43.604Z,70.01
2019-05-25T06:04:43.648Z,70.31
2019-05-25T06:05:43.581Z,69.80
2019-05-25T06:06:43.565Z,69.90
2019-05-25T06:07:43.559Z,69.60
2019-05-25T06:08:43.552Z,69.90
2019-05-25T06:09:43.534Z,70.10
2019-05-25T06:10:43.574Z,70.82
2019-05-25T06:11:43.514Z,69.77
2019-05-25T06:12:43.538Z,69.97
2019-05-25T06:13:43.505Z,69.26
2019-05-25T06:14:43.512Z,69.70
2019-05-25T06:15:43.461Z,69.70
2019-05-25T06:16:43.448Z,70.01
2019-05-25T06:17:43.445Z,70.62
2019-05-25T06:18:43.480Z,70.41
2019-05-25T06:19:43.423Z,69.87
2019-05-25T06:20:43.419Z,71.09
2019-05-25T06:21:43.453Z,70.58
2019-05-25T06:22:43.447Z,69.87
2019-05-25T06:23:43.452Z,69.97
2019-05-25T06:24:43.383Z,70.75
2019-05-25T06:25:43.355Z,70.07
2019-05-25T06:26:43.343Z,70.25
2019-05-25T06:27:43.370Z,70.14
2019-05-25T06:28:43.324Z,70.04
2019-05-25T06:29:43.306Z,70.79
2019-05-25T06:30:43.304Z,70.79
2019-05-25T06:31:43.327Z,71.16
2019-05-25T06:32:43.296Z,69.84
2019-05-25T06:33:43.262Z,70.45
2019-05-25T06:34:43.293Z,69.91
2019-05-25T06:35:43.238Z,69.84
2019-05-25T06:36:43.271Z,69.33
2019-05-25T06:37:43.216Z,69.30
2019-05-25T06:38:43.209Z,70.14
2019-05-25T06:39:43.206Z,69.70
2019-05-25T06:40:43.190Z,69.78
2019-05-25T06:41:43.234Z,69.30
2019-05-25T06:42:43.204Z,69.37
2019-05-25T06:43:43.148Z,69.17
2019-05-25T06:44:43.141Z,68.35
2019-05-25T06:45:43.139Z,68.86
2019-05-25T06:46:43.119Z,68.62
2019-05-25T06:47:43.146Z,68.42
2019-05-25T06:48:43.089Z,68.83
2019-05-25T06:49:43.123Z,68.73
2019-05-25T06:50:43.070Z,68.49
2019-05-25T06:51:43.109Z,67.91
2019-05-25T06:52:43.048Z,68.32
2019-05-25T06:53:43.083Z,69.03
2019-05-25T06:54:43.027Z,69.34
2019-05-25T06:55:43.017Z,69.64
2019-05-25T06:56:43.002Z,69.43
2019-05-25T06:57:44.015Z,68.42
2019-05-25T06:58:43.054Z,69.20
2019-05-25T06:59:42.971Z,68.90
2019-05-25T07:00:43.018Z,68.39
2019-05-25T07:01:42.950Z,68.39
2019-05-25T07:02:42.937Z,68.39
2019-05-25T07:03:42.974Z,68.26
2019-05-25T07:04:42.914Z,68.59
2019-05-25T07:05:42.969Z,67.95
2019-05-25T07:06:42.910Z,68.39
2019-05-25T07:07:42.885Z,68.29
2019-05-25T07:08:42.871Z,68.59
2019-05-25T07:09:42.856Z,68.70
2019-05-25T07:10:42.888Z,69.00
2019-05-25T07:11:42.841Z,68.49
2019-05-25T07:12:42.832Z,68.96
2019-05-25T07:13:42.807Z,68.46
2019-05-25T07:14:42.810Z,68.56
2019-05-25T07:15:42.836Z,68.66
2019-05-25T07:16:42.779Z,67.85
2019-05-25T07:17:42.802Z,67.55
2019-05-25T07:18:42.760Z,67.92
2019-05-25T07:19:42.799Z,67.55
2019-05-25T07:20:42.737Z,67.55
2019-05-25T07:21:42.760Z,67.95
2019-05-25T07:22:42.714Z,67.85
2019-05-25T07:23:42.703Z,67.65
2019-05-25T07:24:42.731Z,67.44
2019-05-25T07:25:42.728Z,67.55
2019-05-25T07:26:42.691Z,67.21
2019-05-25T07:27:57.893Z,66.80
2019-05-25T07:28:43.641Z,67.21
2019-05-25T07:29:42.639Z,67.31
2019-05-25T07:30:42.668Z,67.00
2019-05-25T07:31:42.616Z,66.88
2019-05-25T07:32:42.673Z,66.57
2019-05-25T07:33:42.595Z,65.45
2019-05-25T07:34:42.578Z,66.03
2019-05-25T07:35:42.619Z,65.29
2019-05-25T07:36:42.564Z,65.19
2019-05-25T07:37:42.545Z,64.99
2019-05-25T07:38:42.545Z,64.58
2019-05-25T07:39:42.527Z,65.42
2019-05-25T07:40:42.513Z,65.59
2019-05-25T07:41:42.560Z,64.38
2019-05-25T07:42:42.490Z,63.44
2019-05-25T07:43:42.476Z,63.81
2019-05-25T07:44:42.507Z,63.89
2019-05-25T07:45:42.514Z,62.90
2019-05-25T07:46:42.442Z,63.84
2019-05-25T07:47:42.476Z,63.61
2019-05-25T07:48:42.419Z,62.90
2019-05-25T07:49:42.417Z,62.90
2019-05-25T07:50:42.396Z,62.90
2019-05-25T07:51:42.388Z,62.90
2019-05-25T07:52:42.393Z,63.54
2019-05-25T07:53:42.417Z,63.04
2019-05-25T07:54:42.380Z,62.84
2019-05-25T07:55:42.400Z,62.93
2019-05-25T07:56:42.393Z,62.93
2019-05-25T07:57:42.337Z,62.90
2019-05-25T07:58:42.309Z,62.50
2019-05-25T07:59:42.295Z,62.86
2019-05-25T08:00:42.312Z,64.48
2019-05-25T08:01:42.349Z,64.07
2019-05-25T08:02:42.261Z,64.28
2019-05-25T08:03:42.429Z,64.07
2019-05-25T08:04:42.280Z,64.69
2019-05-25T08:05:42.236Z,64.76
2019-05-25T08:06:42.243Z,64.25
2019-05-25T08:07:42.206Z,63.34
2019-05-25T08:08:42.243Z,63.44
2019-05-25T08:09:42.232Z,64.55
2019-05-25T08:10:42.187Z,63.98
2019-05-25T08:11:42.259Z,63.67
2019-05-25T08:12:42.150Z,64.69
2019-05-25T08:13:42.179Z,64.89
2019-05-25T08:14:45.042Z,64.69
2019-05-25T08:15:42.172Z,64.35
2019-05-25T08:16:42.126Z,64.48
2019-05-25T08:17:42.102Z,64.86
2019-05-25T08:18:42.141Z,63.75
2019-05-25T08:19:42.083Z,63.64
2019-05-25T08:20:42.104Z,64.45
2019-05-25T08:21:42.057Z,63.64
2019-05-25T08:22:42.037Z,64.48
2019-05-25T08:23:42.073Z,64.79
2019-05-25T08:24:42.014Z,64.89
2019-05-25T08:25:42.009Z,64.89
2019-05-25T08:26:42.105Z,64.07
2019-05-25T08:27:41.981Z,64.79
2019-05-25T08:28:41.973Z,64.35
2019-05-25T08:29:41.964Z,64.99
2019-05-25T08:30:42.008Z,64.89
2019-05-25T08:31:41.939Z,64.69
2019-05-25T08:32:41.967Z,64.69
2019-05-25T08:33:41.916Z,65.26
2019-05-25T08:34:41.905Z,64.86
2019-05-25T08:35:41.935Z,64.86
2019-05-25T08:36:41.886Z,64.76
2019-05-25T08:37:41.867Z,64.55
2019-05-25T08:38:41.900Z,64.28
2019-05-25T08:39:41.892Z,64.25
2019-05-25T08:40:41.851Z,64.65
2019-05-25T08:41:45.336Z,63.31
2019-05-25T08:42:41.861Z,63.71
2019-05-25T08:43:41.797Z,63.48
2019-05-25T08:44:41.804Z,63.18
2019-05-25T08:45:41.787Z,62.90
2019-05-25T08:46:41.814Z,63.18
2019-05-25T08:47:41.759Z,62.57
2019-05-25T08:48:41.774Z,61.66
2019-05-25T08:49:41.744Z,61.99
2019-05-25T08:50:41.729Z,62.27
2019-05-25T08:51:41.776Z,62.07
2019-05-25T08:52:41.720Z,61.66
2019-05-25T08:53:42.383Z,60.65
2019-05-25T08:54:41.695Z,60.65
2019-05-25T08:55:41.714Z,60.82
2019-05-25T08:56:41.709Z,60.72
2019-05-25T08:57:41.646Z,59.91
2019-05-25T08:58:48.373Z,60.52
2019-05-25T08:59:42.617Z,60.39
2019-05-25T09:00:41.644Z,59.05
2019-05-25T09:01:41.678Z,57.81
2019-05-25T09:02:41.586Z,58.42
2019-05-25T09:03:41.585Z,58.75
2019-05-25T09:04:41.628Z,59.02
2019-05-25T09:05:41.640Z,58.95
2019-05-25T09:06:41.542Z,58.85
2019-05-25T09:07:41.557Z,59.05
2019-05-25T09:08:41.605Z,59.18
2019-05-25T09:09:41.561Z,59.69
2019-05-25T09:10:41.500Z,60.06
2019-05-25T09:11:41.492Z,58.75
2019-05-25T09:12:41.528Z,59.38
2019-05-25T09:13:41.481Z,59.58
2019-05-25T09:14:41.484Z,59.38
2019-05-25T09:15:41.466Z,59.78
2019-05-25T09:16:41.430Z,60.12
2019-05-25T09:17:41.433Z,60.60
2019-05-25T09:18:41.461Z,60.69
2019-05-25T09:19:41.409Z,59.99
2019-05-25T09:20:41.400Z,60.16
2019-05-25T09:21:41.373Z,59.42
2019-05-25T09:22:41.363Z,59.35
2019-05-25T09:23:41.399Z,59.12
2019-05-25T09:24:41.507Z,59.22
2019-05-25T09:25:41.373Z,59.73
2019-05-25T09:26:41.359Z,60.24
2019-05-25T09:27:41.307Z,59.33
2019-05-25T09:28:41.301Z,59.20
2019-05-25T09:29:41.284Z,60.00
2019-05-25T09:30:41.295Z,58.69
2019-05-25T09:31:41.304Z,59.20
2019-05-25T09:32:41.306Z,59.20
2019-05-25T09:33:41.260Z,57.68
2019-05-25T09:34:41.239Z,58.19
2019-05-25T09:35:41.222Z,58.62
2019-05-25T09:36:41.255Z,58.09
2019-05-25T09:37:41.233Z,58.69
2019-05-25T09:38:43.353Z,56.77
2019-05-25T09:39:41.173Z,57.25
2019-05-25T09:40:41.232Z,56.75
2019-05-25T09:41:41.158Z,57.03
2019-05-25T09:42:41.206Z,57.45
2019-05-25T09:43:41.126Z,56.95
2019-05-25T09:44:41.121Z,57.68
2019-05-25T09:45:41.104Z,58.26
2019-05-25T09:46:41.114Z,58.36
2019-05-25T09:47:41.163Z,57.83
2019-05-25T09:48:41.131Z,57.53
2019-05-25T09:49:41.059Z,57.43
2019-05-25T09:50:41.093Z,57.30
2019-05-25T09:51:41.036Z,56.70
2019-05-25T09:52:41.029Z,56.80
2019-05-25T09:53:41.013Z,56.52
2019-05-25T09:54:41.009Z,57.10
2019-05-25T09:55:40.989Z,57.43
2019-05-25T09:56:41.035Z,56.72
2019-05-25T09:57:41.979Z,57.12
2019-05-25T09:58:40.960Z,56.52
2019-05-25T09:59:41.014Z,55.62
2019-05-25T10:00:40.970Z,55.62
2019-05-25T10:01:40.931Z,56.42
2019-05-25T10:02:41.071Z,55.71
2019-05-25T10:03:40.924Z,56.62
2019-05-25T10:04:40.912Z,56.49
2019-05-25T10:05:40.938Z,56.02
2019-05-25T10:06:40.872Z,54.88
2019-05-25T10:07:40.945Z,55.19
2019-05-25T10:08:40.858Z,54.66
2019-05-25T10:09:40.846Z,54.96
2019-05-25T10:10:40.910Z,54.93
2019-05-25T10:11:40.836Z,54.13
2019-05-25T10:12:40.802Z,54.13
2019-05-25T10:13:40.792Z,54.20
2019-05-25T10:14:40.784Z,54.20
2019-05-25T10:15:40.773Z,54.60
2019-05-25T10:16:40.794Z,55.31
2019-05-25T10:17:40.789Z,55.71
2019-05-25T10:18:40.790Z,55.51
2019-05-25T10:19:40.732Z,55.41
2019-05-25T10:20:40.724Z,54.53
2019-05-25T10:21:40.745Z,54.13
2019-05-25T10:22:40.695Z,53.80
2019-05-25T10:23:40.733Z,53.50
2019-05-25T10:24:40.678Z,53.90
2019-05-25T10:25:40.660Z,53.47
2019-05-25T10:26:40.682Z,53.67
2019-05-25T10:27:40.701Z,53.97
2019-05-25T10:28:40.625Z,54.10
2019-05-25T10:29:40.619Z,55.23
2019-05-25T10:30:40.660Z,54.91
2019-05-25T10:31:40.597Z,55.33
2019-05-25T10:32:40.646Z,55.03
2019-05-25T10:33:40.574Z,55.54
2019-05-25T10:34:40.567Z,55.83
2019-05-25T10:35:40.550Z,54.93
2019-05-25T10:36:40.585Z,55.13
2019-05-25T10:37:40.528Z,55.13
2019-05-25T10:38:40.534Z,54.91
2019-05-25T10:39:40.513Z,55.61
2019-05-25T10:40:40.577Z,54.58
2019-05-25T10:41:40.492Z,53.97
2019-05-25T10:42:40.475Z,53.57
2019-05-25T10:43:40.458Z,54.30
2019-05-25T10:44:40.452Z,54.00
2019-05-25T10:45:40.476Z,54.58
2019-05-25T10:46:40.508Z,54.17
2019-05-25T10:47:40.416Z,53.65
2019-05-25T10:48:40.527Z,54.25
2019-05-25T10:49:40.403Z,53.85
2019-05-25T10:50:40.386Z,50.84
2019-05-25T10:51:40.423Z,51.97
2019-05-25T10:52:40.367Z,52.77
2019-05-25T10:53:40.361Z,51.06
2019-05-25T10:54:40.343Z,52.47
2019-05-25T10:55:40.337Z,52.44
2019-05-25T10:56:40.324Z,51.54
2019-05-25T10:57:40.396Z,51.86
2019-05-25T10:58:40.309Z,52.26
2019-05-25T10:59:52.636Z,50.93
2019-05-25T11:00:41.280Z,51.72
2019-05-25T11:01:40.275Z,51.61
2019-05-25T11:02:40.298Z,51.61
2019-05-25T11:03:40.290Z,50.51
2019-05-25T11:04:40.239Z,51.31
2019-05-25T11:05:40.265Z,50.51
2019-05-25T11:06:40.215Z,49.91
2019-05-25T11:07:40.201Z,49.88
2019-05-25T11:08:40.235Z,50.18
2019-05-25T11:09:40.185Z,48.55
2019-05-25T11:10:40.169Z,49.48
2019-05-25T11:11:40.157Z,49.38
2019-05-25T11:12:40.148Z,49.60
2019-05-25T11:13:40.176Z,49.83
2019-05-25T11:14:40.118Z,50.53
2019-05-25T11:15:40.112Z,49.91
2019-05-25T11:16:40.168Z,49.91
2019-05-25T11:17:40.085Z,50.31
2019-05-25T11:18:40.089Z,48.78
2019-05-25T11:19:40.068Z,48.88
2019-05-25T11:20:40.106Z,48.25
2019-05-25T11:21:40.085Z,47.93
2019-05-25T11:22:40.083Z,48.55
2019-05-25T11:23:40.027Z,48.46
2019-05-25T11:24:40.015Z,49.76
2019-05-25T11:25:40.003Z,49.46
2019-05-25T11:26:39.989Z,50.59
2019-05-25T11:27:40.036Z,50.29
2019-05-25T11:28:39.972Z,49.86
2019-05-25T11:29:40.006Z,50.29
2019-05-25T11:30:39.944Z,50.91
2019-05-25T11:31:40.108Z,50.46
2019-05-25T11:32:39.939Z,50.06
2019-05-25T11:33:39.946Z,49.66
2019-05-25T11:34:39.898Z,49.84
2019-05-25T11:35:39.967Z,49.04
2019-05-25T11:36:39.891Z,48.43
2019-05-25T11:37:39.905Z,48.13
2019-05-25T11:38:39.886Z,49.36
2019-05-25T11:39:39.891Z,49.38
2019-05-25T11:40:39.832Z,49.78
2019-05-25T11:41:39.826Z,49.58
2019-05-25T11:42:39.811Z,50.48
2019-05-25T11:43:39.799Z,48.78
2019-05-25T11:44:40.158Z,48.88
2019-05-25T11:45:39.832Z,49.28
2019-05-25T11:46:39.772Z,49.86
2019-05-25T11:47:39.768Z,50.36
2019-05-25T11:48:39.741Z,49.86
2019-05-25T11:49:39.726Z,49.84
2019-05-25T11:50:39.743Z,49.23
2019-05-25T11:51:39.747Z,49.84
2019-05-25T11:52:39.757Z,49.86
2019-05-25T11:53:39.723Z,49.56
2019-05-25T11:54:39.697Z,49.88
2019-05-25T11:55:39.714Z,50.41
2019-05-25T11:56:39.672Z,49.88
2019-05-25T11:57:39.650Z,49.86
2019-05-25T11:58:47.521Z,49.66
2019-05-25T11:59:40.614Z,49.66
2019-05-25T12:00:39.611Z,50.06
2019-05-25T12:01:39.642Z,50.44
2019-05-25T12:02:39.610Z,50.31
2019-05-25T12:03:39.578Z,50.24
2019-05-25T12:04:39.621Z,49.74
2019-05-25T12:05:39.552Z,50.04
2019-05-25T12:06:39.547Z,49.33
2019-05-25T12:07:39.526Z,49.54
2019-05-25T12:08:39.518Z,49.26
2019-05-25T12:09:39.558Z,49.66
2019-05-25T12:10:39.505Z,49.84
2019-05-25T12:11:39.534Z,49.31
2019-05-25T12:12:39.478Z,48.21
2019-05-25T12:13:39.459Z,47.50
2019-05-25T12:14:39.496Z,48.11
2019-05-25T12:15:39.480Z,47.96
2019-05-25T12:16:39.429Z,49.46
2019-05-25T12:17:39.490Z,49.36
2019-05-25T12:18:39.409Z,48.23
2019-05-25T12:19:39.499Z,47.03
2019-05-25T12:20:39.381Z,47.23
2019-05-25T12:21:39.370Z,47.81
2019-05-25T12:22:39.382Z,47.23
2019-05-25T12:23:39.400Z,47.71
2019-05-25T12:24:39.343Z,47.81
2019-05-25T12:25:39.332Z,47.81
2019-05-25T12:26:39.315Z,47.00
2019-05-25T12:27:39.312Z,46.58
2019-05-25T12:28:39.296Z,46.28
2019-05-25T12:29:39.323Z,46.88
2019-05-25T12:30:41.116Z,46.88
2019-05-25T12:31:39.259Z,48.61
2019-05-25T12:32:39.252Z,47.91
2019-05-25T12:33:39.288Z,47.99
2019-05-25T12:34:39.291Z,47.78
2019-05-25T12:35:39.218Z,47.56
2019-05-25T12:36:39.216Z,46.36
2019-05-25T12:37:39.205Z,46.68
2019-05-25T12:38:39.197Z,46.08
2019-05-25T12:39:39.178Z,45.56
2019-05-25T12:40:52.732Z,43.96
2019-05-25T12:41:40.150Z,44.54
2019-05-25T12:42:39.135Z,44.74
2019-05-25T12:43:39.143Z,44.93
2019-05-25T12:44:39.125Z,44.84
2019-05-25T12:45:41.977Z,44.93
2019-05-25T12:46:39.136Z,46.64
2019-05-25T12:47:39.084Z,46.76
2019-05-25T12:48:39.082Z,47.86
2019-05-25T12:49:50.087Z,47.36
2019-05-25T12:50:40.101Z,47.46
2019-05-25T12:51:39.033Z,48.04
2019-05-25T12:52:39.024Z,47.14